sensor_id;sensor_type;location;lat;lon;timestamp;P1;durP1;ratioP1;P2;durP2;ratioP2
11121;SDS011;5615;49.304;10.576;2022-11-18T00:00:26;17.23;;;10.40;;
11121;SDS011;5615;49.304;10.576;2022-11-18T00:02:54;16.50;;;10.03;;
11121;SDS011;5615;49.304;10.576;2022-11-18T00:05:21;18.03;;;10.77;;
11121;SDS011;5615;49.304;10.576;2022-11-18T00:07:48;16.97;;;9.87;;
11121;SDS011;5615;49.304;10.576;2022-11-18T00:10:15;17.87;;;11.40;;
11121;SDS011;5615;49.304;10.576;2022-11-18T00:12:42;18.17;;;10.70;;
11121;SDS011;5615;49.304;10.576;2022-11-18T00:15:26;13.63;;;10.40;;
11121;SDS011;5615;49.304;10.576;2022-11-18T00:17:54;16.30;;;10.30;;
11121;SDS011;5615;49.304;10.576;2022-11-18T00:20:21;17.83;;;12.23;;
11121;SDS011;5615;49.304;10.576;2022-11-18T00:22:47;21.67;;;12.77;;
11121;SDS011;5615;49.304;10.576;2022-11-18T00:25:14;16.87;;;11.70;;
11121;SDS011;5615;49.304;10.576;2022-11-18T00:27:41;16.17;;;12.37;;
11121;SDS011;5615;49.304;10.576;2022-11-18T00:30:08;17.33;;;11.90;;
11121;SDS011;5615;49.304;10.576;2022-11-18T00:32:36;16.93;;;12.10;;
11121;SDS011;5615;49.304;10.576;2022-11-18T00:35:04;17.83;;;12.40;;
11121;SDS011;5615;49.304;10.576;2022-11-18T00:37:32;21.33;;;13.20;;
11121;SDS011;5615;49.304;10.576;2022-11-18T00:39:58;18.77;;;12.73;;
11121;SDS011;5615;49.304;10.576;2022-11-18T00:42:25;24.87;;;15.80;;
11121;SDS011;5615;49.304;10.576;2022-11-18T00:45:09;17.40;;;13.83;;
11121;SDS011;5615;49.304;10.576;2022-11-18T00:47:36;22.67;;;14.03;;
11121;SDS011;5615;49.304;10.576;2022-11-18T00:50:04;23.90;;;13.63;;
11121;SDS011;5615;49.304;10.576;2022-11-18T00:52:31;23.93;;;15.40;;
11121;SDS011;5615;49.304;10.576;2022-11-18T00:54:58;23.97;;;14.67;;
11121;SDS011;5615;49.304;10.576;2022-11-18T00:57:25;18.07;;;13.47;;
11121;SDS011;5615;49.304;10.576;2022-11-18T00:59:51;26.00;;;15.67;;
11121;SDS011;5615;49.304;10.576;2022-11-18T01:02:18;17.07;;;13.27;;
11121;SDS011;5615;49.304;10.576;2022-11-18T01:04:44;21.40;;;14.57;;
11121;SDS011;5615;49.304;10.576;2022-11-18T01:07:12;18.40;;;13.30;;
11121;SDS011;5615;49.304;10.576;2022-11-18T01:09:39;18.13;;;12.70;;
11121;SDS011;5615;49.304;10.576;2022-11-18T01:12:08;14.17;;;8.63;;
11121;SDS011;5615;49.304;10.576;2022-11-18T01:14:52;6.50;;;5.53;;
11121;SDS011;5615;49.304;10.576;2022-11-18T01:17:19;10.87;;;8.03;;
11121;SDS011;5615;49.304;10.576;2022-11-18T01:19:46;7.03;;;3.77;;
11121;SDS011;5615;49.304;10.576;2022-11-18T01:22:14;7.30;;;4.27;;
11121;SDS011;5615;49.304;10.576;2022-11-18T01:24:40;8.73;;;5.73;;
11121;SDS011;5615;49.304;10.576;2022-11-18T01:27:07;8.33;;;5.60;;
11121;SDS011;5615;49.304;10.576;2022-11-18T01:29:34;9.60;;;5.33;;
11121;SDS011;5615;49.304;10.576;2022-11-18T01:32:01;8.80;;;6.07;;
11121;SDS011;5615;49.304;10.576;2022-11-18T01:34:28;10.13;;;6.27;;
11121;SDS011;5615;49.304;10.576;2022-11-18T01:36:55;8.93;;;5.83;;
11121;SDS011;5615;49.304;10.576;2022-11-18T01:39:23;7.60;;;5.10;;
11121;SDS011;5615;49.304;10.576;2022-11-18T01:41:50;6.07;;;2.90;;
11121;SDS011;5615;49.304;10.576;2022-11-18T01:47:29;6.73;;;4.93;;
11121;SDS011;5615;49.304;10.576;2022-11-18T01:49:59;7.40;;;4.77;;
11121;SDS011;5615;49.304;10.576;2022-11-18T01:52:26;8.00;;;5.83;;
11121;SDS011;5615;49.304;10.576;2022-11-18T01:54:56;12.50;;;7.63;;
11121;SDS011;5615;49.304;10.576;2022-11-18T01:57:27;11.67;;;8.97;;
11121;SDS011;5615;49.304;10.576;2022-11-18T01:59:56;17.57;;;9.43;;
11121;SDS011;5615;49.304;10.576;2022-11-18T02:02:25;15.43;;;8.77;;
11121;SDS011;5615;49.304;10.576;2022-11-18T02:04:52;13.37;;;7.97;;
11121;SDS011;5615;49.304;10.576;2022-11-18T02:07:20;11.70;;;7.50;;
11121;SDS011;5615;49.304;10.576;2022-11-18T02:09:47;11.77;;;8.33;;
11121;SDS011;5615;49.304;10.576;2022-11-18T02:12:17;13.23;;;8.70;;
11121;SDS011;5615;49.304;10.576;2022-11-18T02:14:44;13.67;;;8.73;;
11121;SDS011;5615;49.304;10.576;2022-11-18T02:17:14;15.83;;;9.13;;
11121;SDS011;5615;49.304;10.576;2022-11-18T02:23:00;16.47;;;9.20;;
11121;SDS011;5615;49.304;10.576;2022-11-18T02:25:48;16.27;;;9.23;;
11121;SDS011;5615;49.304;10.576;2022-11-18T02:28:30;13.17;;;8.20;;
11121;SDS011;5615;49.304;10.576;2022-11-18T02:31:07;10.47;;;7.53;;
11121;SDS011;5615;49.304;10.576;2022-11-18T02:33:41;9.70;;;6.37;;
11121;SDS011;5615;49.304;10.576;2022-11-18T02:36:12;6.43;;;4.70;;
11121;SDS011;5615;49.304;10.576;2022-11-18T02:38:47;8.10;;;5.43;;
11121;SDS011;5615;49.304;10.576;2022-11-18T02:41:18;8.07;;;6.00;;
11121;SDS011;5615;49.304;10.576;2022-11-18T02:43:48;11.27;;;6.30;;
11121;SDS011;5615;49.304;10.576;2022-11-18T02:46:22;9.20;;;6.40;;
11121;SDS011;5615;49.304;10.576;2022-11-18T02:48:53;10.00;;;6.87;;
11121;SDS011;5615;49.304;10.576;2022-11-18T02:51:22;11.10;;;7.13;;
11121;SDS011;5615;49.304;10.576;2022-11-18T02:53:51;11.53;;;8.83;;
11121;SDS011;5615;49.304;10.576;2022-11-18T02:56:21;21.13;;;13.47;;
11121;SDS011;5615;49.304;10.576;2022-11-18T02:58:51;39.50;;;24.43;;
11121;SDS011;5615;49.304;10.576;2022-11-18T03:01:20;44.33;;;27.13;;
11121;SDS011;5615;49.304;10.576;2022-11-18T03:03:50;40.37;;;23.83;;
11121;SDS011;5615;49.304;10.576;2022-11-18T03:06:19;37.27;;;21.53;;
11121;SDS011;5615;49.304;10.576;2022-11-18T03:08:53;28.10;;;18.00;;
11121;SDS011;5615;49.304;10.576;2022-11-18T03:11:25;14.43;;;11.40;;
11121;SDS011;5615;49.304;10.576;2022-11-18T03:14:04;12.87;;;9.43;;
11121;SDS011;5615;49.304;10.576;2022-11-18T03:16:36;11.73;;;8.20;;
11121;SDS011;5615;49.304;10.576;2022-11-18T03:19:08;13.03;;;9.13;;
11121;SDS011;5615;49.304;10.576;2022-11-18T03:21:44;16.30;;;8.57;;
11121;SDS011;5615;49.304;10.576;2022-11-18T03:24:17;8.60;;;6.33;;
11121;SDS011;5615;49.304;10.576;2022-11-18T03:26:49;8.87;;;6.47;;
11121;SDS011;5615;49.304;10.576;2022-11-18T03:29:22;9.57;;;6.37;;
11121;SDS011;5615;49.304;10.576;2022-11-18T03:31:53;7.93;;;5.73;;
11121;SDS011;5615;49.304;10.576;2022-11-18T03:34:25;8.23;;;6.10;;
11121;SDS011;5615;49.304;10.576;2022-11-18T03:36:55;4.77;;;4.27;;
11121;SDS011;5615;49.304;10.576;2022-11-18T03:39:26;4.60;;;3.50;;
11121;SDS011;5615;49.304;10.576;2022-11-18T03:41:56;5.13;;;4.17;;
11121;SDS011;5615;49.304;10.576;2022-11-18T03:44:28;6.80;;;4.77;;
11121;SDS011;5615;49.304;10.576;2022-11-18T03:47:01;7.17;;;5.00;;
11121;SDS011;5615;49.304;10.576;2022-11-18T03:49:32;5.37;;;4.70;;
11121;SDS011;5615;49.304;10.576;2022-11-18T03:52:04;5.43;;;4.10;;
11121;SDS011;5615;49.304;10.576;2022-11-18T03:54:33;8.60;;;5.07;;
11121;SDS011;5615;49.304;10.576;2022-11-18T03:57:03;9.17;;;5.77;;
11121;SDS011;5615;49.304;10.576;2022-11-18T03:59:39;6.60;;;4.80;;
11121;SDS011;5615;49.304;10.576;2022-11-18T04:02:12;4.63;;;3.70;;
11121;SDS011;5615;49.304;10.576;2022-11-18T04:04:41;9.67;;;4.40;;
11121;SDS011;5615;49.304;10.576;2022-11-18T04:07:11;6.53;;;4.43;;
11121;SDS011;5615;49.304;10.576;2022-11-18T04:09:49;5.77;;;4.17;;
11121;SDS011;5615;49.304;10.576;2022-11-18T04:12:19;6.13;;;3.63;;
11121;SDS011;5615;49.304;10.576;2022-11-18T04:14:48;5.30;;;4.20;;
11121;SDS011;5615;49.304;10.576;2022-11-18T04:17:21;6.97;;;4.93;;
11121;SDS011;5615;49.304;10.576;2022-11-18T04:19:49;5.77;;;4.57;;
11121;SDS011;5615;49.304;10.576;2022-11-18T04:22:15;7.00;;;5.47;;
11121;SDS011;5615;49.304;10.576;2022-11-18T04:24:43;6.90;;;5.40;;
11121;SDS011;5615;49.304;10.576;2022-11-18T04:27:10;5.93;;;4.83;;
11121;SDS011;5615;49.304;10.576;2022-11-18T04:29:37;6.67;;;4.93;;
11121;SDS011;5615;49.304;10.576;2022-11-18T04:32:04;6.23;;;4.90;;
11121;SDS011;5615;49.304;10.576;2022-11-18T04:34:32;8.03;;;4.67;;
11121;SDS011;5615;49.304;10.576;2022-11-18T04:36:59;5.93;;;3.83;;
11121;SDS011;5615;49.304;10.576;2022-11-18T04:39:26;4.80;;;3.67;;
11121;SDS011;5615;49.304;10.576;2022-11-18T04:41:52;4.53;;;3.80;;
11121;SDS011;5615;49.304;10.576;2022-11-18T04:44:22;5.23;;;3.60;;
11121;SDS011;5615;49.304;10.576;2022-11-18T04:46:51;5.20;;;3.30;;
11121;SDS011;5615;49.304;10.576;2022-11-18T04:49:18;7.07;;;3.80;;
11121;SDS011;5615;49.304;10.576;2022-11-18T04:51:46;5.43;;;3.93;;
11121;SDS011;5615;49.304;10.576;2022-11-18T04:54:13;7.57;;;3.93;;
11121;SDS011;5615;49.304;10.576;2022-11-18T04:56:41;7.37;;;3.60;;
11121;SDS011;5615;49.304;10.576;2022-11-18T04:59:08;4.53;;;4.03;;
11121;SDS011;5615;49.304;10.576;2022-11-18T05:01:36;4.97;;;4.27;;
11121;SDS011;5615;49.304;10.576;2022-11-18T05:04:03;6.27;;;4.60;;
11121;SDS011;5615;49.304;10.576;2022-11-18T05:06:30;8.20;;;4.90;;
11121;SDS011;5615;49.304;10.576;2022-11-18T05:08:59;5.87;;;3.93;;
11121;SDS011;5615;49.304;10.576;2022-11-18T05:11:26;4.90;;;4.40;;
11121;SDS011;5615;49.304;10.576;2022-11-18T05:14:11;6.83;;;4.60;;
11121;SDS011;5615;49.304;10.576;2022-11-18T05:16:38;5.27;;;4.20;;
11121;SDS011;5615;49.304;10.576;2022-11-18T05:19:05;6.80;;;4.23;;
11121;SDS011;5615;49.304;10.576;2022-11-18T05:21:32;5.77;;;4.20;;
11121;SDS011;5615;49.304;10.576;2022-11-18T05:24:00;8.53;;;4.77;;
11121;SDS011;5615;49.304;10.576;2022-11-18T05:26:28;7.17;;;5.10;;
11121;SDS011;5615;49.304;10.576;2022-11-18T05:28:55;6.63;;;5.27;;
11121;SDS011;5615;49.304;10.576;2022-11-18T05:31:22;7.63;;;5.20;;
11121;SDS011;5615;49.304;10.576;2022-11-18T05:33:48;8.93;;;5.57;;
11121;SDS011;5615;49.304;10.576;2022-11-18T05:36:16;8.30;;;6.37;;
11121;SDS011;5615;49.304;10.576;2022-11-18T05:38:44;11.27;;;7.50;;
11121;SDS011;5615;49.304;10.576;2022-11-18T05:41:12;13.97;;;8.10;;
11121;SDS011;5615;49.304;10.576;2022-11-18T05:43:59;10.90;;;8.20;;
11121;SDS011;5615;49.304;10.576;2022-11-18T05:46:26;12.57;;;8.07;;
11121;SDS011;5615;49.304;10.576;2022-11-18T05:48:53;15.00;;;8.87;;
11121;SDS011;5615;49.304;10.576;2022-11-18T05:51:20;12.00;;;8.70;;
11121;SDS011;5615;49.304;10.576;2022-11-18T05:53:47;12.33;;;8.37;;
11121;SDS011;5615;49.304;10.576;2022-11-18T05:56:19;11.53;;;8.10;;
11121;SDS011;5615;49.304;10.576;2022-11-18T05:58:47;11.47;;;8.37;;
11121;SDS011;5615;49.304;10.576;2022-11-18T06:01:14;12.37;;;8.13;;
11121;SDS011;5615;49.304;10.576;2022-11-18T06:03:44;12.67;;;8.07;;
11121;SDS011;5615;49.304;10.576;2022-11-18T06:06:11;12.13;;;7.77;;
11121;SDS011;5615;49.304;10.576;2022-11-18T06:08:41;9.23;;;7.23;;
11121;SDS011;5615;49.304;10.576;2022-11-18T06:11:13;14.10;;;8.27;;
11121;SDS011;5615;49.304;10.576;2022-11-18T06:13:43;10.67;;;8.20;;
11121;SDS011;5615;49.304;10.576;2022-11-18T06:16:17;11.53;;;8.77;;
11121;SDS011;5615;49.304;10.576;2022-11-18T06:18:47;11.93;;;8.50;;
11121;SDS011;5615;49.304;10.576;2022-11-18T06:21:14;12.07;;;8.57;;
11121;SDS011;5615;49.304;10.576;2022-11-18T06:23:41;14.30;;;9.10;;
11121;SDS011;5615;49.304;10.576;2022-11-18T06:26:08;16.97;;;9.07;;
11121;SDS011;5615;49.304;10.576;2022-11-18T06:28:36;12.70;;;9.37;;
11121;SDS011;5615;49.304;10.576;2022-11-18T06:31:05;15.37;;;9.43;;
11121;SDS011;5615;49.304;10.576;2022-11-18T06:33:32;11.80;;;8.43;;
11121;SDS011;5615;49.304;10.576;2022-11-18T06:35:59;10.47;;;8.37;;
11121;SDS011;5615;49.304;10.576;2022-11-18T06:38:25;11.37;;;7.83;;
11121;SDS011;5615;49.304;10.576;2022-11-18T06:40:52;10.67;;;7.10;;
11121;SDS011;5615;49.304;10.576;2022-11-18T06:43:19;9.87;;;6.97;;
11121;SDS011;5615;49.304;10.576;2022-11-18T06:46:03;8.90;;;6.70;;
11121;SDS011;5615;49.304;10.576;2022-11-18T06:48:50;10.63;;;9.30;;
11121;SDS011;5615;49.304;10.576;2022-11-18T06:51:17;10.73;;;7.20;;
11121;SDS011;5615;49.304;10.576;2022-11-18T06:53:43;6.53;;;5.40;;
11121;SDS011;5615;49.304;10.576;2022-11-18T06:56:10;11.20;;;8.00;;
11121;SDS011;5615;49.304;10.576;2022-11-18T06:58:39;10.07;;;6.97;;
11121;SDS011;5615;49.304;10.576;2022-11-18T07:01:09;7.37;;;5.83;;
11121;SDS011;5615;49.304;10.576;2022-11-18T07:03:37;9.57;;;6.97;;
11121;SDS011;5615;49.304;10.576;2022-11-18T07:06:06;6.57;;;5.13;;
11121;SDS011;5615;49.304;10.576;2022-11-18T07:08:33;13.23;;;10.27;;
11121;SDS011;5615;49.304;10.576;2022-11-18T07:11:01;7.80;;;5.93;;
11121;SDS011;5615;49.304;10.576;2022-11-18T07:13:29;9.43;;;7.47;;
11121;SDS011;5615;49.304;10.576;2022-11-18T07:16:00;7.03;;;5.70;;
11121;SDS011;5615;49.304;10.576;2022-11-18T07:18:29;14.83;;;12.00;;
11121;SDS011;5615;49.304;10.576;2022-11-18T07:20:56;7.17;;;4.83;;
11121;SDS011;5615;49.304;10.576;2022-11-18T07:23:28;8.43;;;4.37;;
11121;SDS011;5615;49.304;10.576;2022-11-18T07:25:55;6.53;;;4.60;;
11121;SDS011;5615;49.304;10.576;2022-11-18T07:28:21;7.20;;;4.83;;
11121;SDS011;5615;49.304;10.576;2022-11-18T07:30:48;5.00;;;4.43;;
11121;SDS011;5615;49.304;10.576;2022-11-18T07:33:15;10.90;;;8.33;;
11121;SDS011;5615;49.304;10.576;2022-11-18T07:35:42;9.53;;;7.17;;
11121;SDS011;5615;49.304;10.576;2022-11-18T07:38:08;10.03;;;5.67;;
11121;SDS011;5615;49.304;10.576;2022-11-18T07:40:37;5.97;;;3.40;;
11121;SDS011;5615;49.304;10.576;2022-11-18T07:43:03;5.50;;;3.73;;
11121;SDS011;5615;49.304;10.576;2022-11-18T07:45:31;7.77;;;5.03;;
11121;SDS011;5615;49.304;10.576;2022-11-18T07:47:57;7.73;;;4.47;;
11121;SDS011;5615;49.304;10.576;2022-11-18T07:50:24;5.40;;;4.20;;
11121;SDS011;5615;49.304;10.576;2022-11-18T07:52:53;8.03;;;5.10;;
11121;SDS011;5615;49.304;10.576;2022-11-18T07:55:20;8.63;;;5.10;;
11121;SDS011;5615;49.304;10.576;2022-11-18T07:57:48;9.80;;;6.20;;
11121;SDS011;5615;49.304;10.576;2022-11-18T08:00:16;34.40;;;17.10;;
11121;SDS011;5615;49.304;10.576;2022-11-18T08:02:43;29.10;;;14.77;;
11121;SDS011;5615;49.304;10.576;2022-11-18T08:05:09;21.83;;;10.07;;
11121;SDS011;5615;49.304;10.576;2022-11-18T08:07:36;6.70;;;5.50;;
11121;SDS011;5615;49.304;10.576;2022-11-18T08:10:03;7.67;;;5.20;;
11121;SDS011;5615;49.304;10.576;2022-11-18T08:12:30;9.13;;;8.23;;
11121;SDS011;5615;49.304;10.576;2022-11-18T08:14:58;10.20;;;8.27;;
11121;SDS011;5615;49.304;10.576;2022-11-18T08:17:24;6.47;;;5.77;;
11121;SDS011;5615;49.304;10.576;2022-11-18T08:19:51;10.30;;;8.50;;
11121;SDS011;5615;49.304;10.576;2022-11-18T08:22:18;10.90;;;9.07;;
11121;SDS011;5615;49.304;10.576;2022-11-18T08:24:44;6.97;;;6.03;;
11121;SDS011;5615;49.304;10.576;2022-11-18T08:27:11;10.67;;;6.90;;
11121;SDS011;5615;49.304;10.576;2022-11-18T08:29:38;11.60;;;8.47;;
11121;SDS011;5615;49.304;10.576;2022-11-18T08:32:07;9.40;;;6.27;;
11121;SDS011;5615;49.304;10.576;2022-11-18T08:34:33;9.63;;;7.20;;
11121;SDS011;5615;49.304;10.576;2022-11-18T08:37:00;9.70;;;6.90;;
11121;SDS011;5615;49.304;10.576;2022-11-18T08:39:27;8.13;;;6.40;;
11121;SDS011;5615;49.304;10.576;2022-11-18T08:41:53;7.17;;;6.27;;
11121;SDS011;5615;49.304;10.576;2022-11-18T08:44:23;7.10;;;5.63;;
11121;SDS011;5615;49.304;10.576;2022-11-18T08:46:50;6.03;;;5.40;;
11121;SDS011;5615;49.304;10.576;2022-11-18T08:49:18;5.67;;;5.07;;
11121;SDS011;5615;49.304;10.576;2022-11-18T08:51:44;6.17;;;5.57;;
11121;SDS011;5615;49.304;10.576;2022-11-18T08:54:11;7.30;;;5.40;;
11121;SDS011;5615;49.304;10.576;2022-11-18T08:56:38;7.13;;;5.63;;
11121;SDS011;5615;49.304;10.576;2022-11-18T08:59:04;6.00;;;5.40;;
11121;SDS011;5615;49.304;10.576;2022-11-18T09:01:32;6.07;;;5.30;;
11121;SDS011;5615;49.304;10.576;2022-11-18T09:03:59;5.80;;;5.20;;
11121;SDS011;5615;49.304;10.576;2022-11-18T09:06:27;12.80;;;10.97;;
11121;SDS011;5615;49.304;10.576;2022-11-18T09:08:54;7.33;;;6.40;;
11121;SDS011;5615;49.304;10.576;2022-11-18T09:11:21;14.70;;;11.80;;
11121;SDS011;5615;49.304;10.576;2022-11-18T09:13:50;9.00;;;7.17;;
11121;SDS011;5615;49.304;10.576;2022-11-18T09:16:17;6.00;;;4.37;;
11121;SDS011;5615;49.304;10.576;2022-11-18T09:18:44;15.57;;;11.47;;
11121;SDS011;5615;49.304;10.576;2022-11-18T09:21:11;8.43;;;7.17;;
11121;SDS011;5615;49.304;10.576;2022-11-18T09:23:39;5.10;;;4.60;;
11121;SDS011;5615;49.304;10.576;2022-11-18T09:26:06;6.33;;;5.73;;
11121;SDS011;5615;49.304;10.576;2022-11-18T09:28:34;8.37;;;7.50;;
11121;SDS011;5615;49.304;10.576;2022-11-18T09:31:02;4.27;;;3.87;;
11121;SDS011;5615;49.304;10.576;2022-11-18T09:33:30;5.87;;;4.60;;
11121;SDS011;5615;49.304;10.576;2022-11-18T09:35:56;5.50;;;4.53;;
11121;SDS011;5615;49.304;10.576;2022-11-18T09:38:23;4.43;;;3.37;;
11121;SDS011;5615;49.304;10.576;2022-11-18T09:40:54;3.43;;;3.13;;
11121;SDS011;5615;49.304;10.576;2022-11-18T09:43:29;4.13;;;3.07;;
11121;SDS011;5615;49.304;10.576;2022-11-18T09:46:08;3.90;;;3.30;;
11121;SDS011;5615;49.304;10.576;2022-11-18T09:48:47;8.97;;;4.00;;
11121;SDS011;5615;49.304;10.576;2022-11-18T09:51:32;4.63;;;4.23;;
11121;SDS011;5615;49.304;10.576;2022-11-18T09:54:04;7.70;;;7.00;;
11121;SDS011;5615;49.304;10.576;2022-11-18T09:56:34;3.50;;;3.20;;
11121;SDS011;5615;49.304;10.576;2022-11-18T09:59:01;4.30;;;3.90;;
11121;SDS011;5615;49.304;10.576;2022-11-18T10:01:29;3.83;;;3.50;;
11121;SDS011;5615;49.304;10.576;2022-11-18T10:03:56;3.77;;;3.47;;
11121;SDS011;5615;49.304;10.576;2022-11-18T10:06:23;3.23;;;3.00;;
11121;SDS011;5615;49.304;10.576;2022-11-18T10:08:58;4.07;;;3.37;;
11121;SDS011;5615;49.304;10.576;2022-11-18T10:11:38;4.40;;;4.00;;
11121;SDS011;5615;49.304;10.576;2022-11-18T10:14:14;4.73;;;3.40;;
11121;SDS011;5615;49.304;10.576;2022-11-18T10:16:52;3.63;;;3.33;;
11121;SDS011;5615;49.304;10.576;2022-11-18T10:19:28;3.47;;;3.00;;
11121;SDS011;5615;49.304;10.576;2022-11-18T10:24:48;3.50;;;3.20;;
11121;SDS011;5615;49.304;10.576;2022-11-18T10:27:17;3.60;;;2.97;;
11121;SDS011;5615;49.304;10.576;2022-11-18T10:29:45;3.50;;;3.20;;
11121;SDS011;5615;49.304;10.576;2022-11-18T10:32:18;2.90;;;2.70;;
11121;SDS011;5615;49.304;10.576;2022-11-18T10:34:46;3.07;;;2.87;;
11121;SDS011;5615;49.304;10.576;2022-11-18T10:37:21;3.37;;;2.90;;
11121;SDS011;5615;49.304;10.576;2022-11-18T10:39:50;5.20;;;3.30;;
11121;SDS011;5615;49.304;10.576;2022-11-18T10:42:19;3.40;;;3.10;;
11121;SDS011;5615;49.304;10.576;2022-11-18T10:44:52;3.83;;;3.23;;
11121;SDS011;5615;49.304;10.576;2022-11-18T10:47:23;3.60;;;3.20;;
11121;SDS011;5615;49.304;10.576;2022-11-18T10:49:52;3.63;;;3.30;;
11121;SDS011;5615;49.304;10.576;2022-11-18T10:52:20;10.70;;;8.33;;
11121;SDS011;5615;49.304;10.576;2022-11-18T10:55:03;11.83;;;8.90;;
11121;SDS011;5615;49.304;10.576;2022-11-18T10:57:35;18.50;;;13.47;;
11121;SDS011;5615;49.304;10.576;2022-11-18T11:00:30;7.93;;;5.27;;
11121;SDS011;5615;49.304;10.576;2022-11-18T11:03:21;8.00;;;5.83;;
11121;SDS011;5615;49.304;10.576;2022-11-18T11:06:14;4.53;;;4.00;;
11121;SDS011;5615;49.304;10.576;2022-11-18T11:08:48;8.80;;;7.40;;
11121;SDS011;5615;49.304;10.576;2022-11-18T11:11:20;4.93;;;4.33;;
11121;SDS011;5615;49.304;10.576;2022-11-18T11:13:51;7.30;;;5.47;;
11121;SDS011;5615;49.304;10.576;2022-11-18T11:16:21;13.37;;;8.07;;
11121;SDS011;5615;49.304;10.576;2022-11-18T11:18:52;5.97;;;5.37;;
11121;SDS011;5615;49.304;10.576;2022-11-18T11:21:24;4.67;;;4.27;;
11121;SDS011;5615;49.304;10.576;2022-11-18T11:23:52;5.20;;;4.70;;
11121;SDS011;5615;49.304;10.576;2022-11-18T11:26:20;5.27;;;4.07;;
11121;SDS011;5615;49.304;10.576;2022-11-18T11:28:54;4.00;;;3.70;;
11121;SDS011;5615;49.304;10.576;2022-11-18T11:31:26;4.17;;;3.60;;
11121;SDS011;5615;49.304;10.576;2022-11-18T11:34:01;4.23;;;3.83;;
11121;SDS011;5615;49.304;10.576;2022-11-18T11:36:38;5.07;;;3.53;;
11121;SDS011;5615;49.304;10.576;2022-11-18T11:39:17;4.10;;;3.70;;
11121;SDS011;5615;49.304;10.576;2022-11-18T11:42:05;4.20;;;3.73;;
11121;SDS011;5615;49.304;10.576;2022-11-18T11:44:44;3.53;;;3.23;;
11121;SDS011;5615;49.304;10.576;2022-11-18T11:47:21;4.00;;;3.60;;
11121;SDS011;5615;49.304;10.576;2022-11-18T11:50:16;4.37;;;3.93;;
11121;SDS011;5615;49.304;10.576;2022-11-18T11:52:49;6.40;;;3.80;;
11121;SDS011;5615;49.304;10.576;2022-11-18T11:55:41;4.37;;;3.37;;
11121;SDS011;5615;49.304;10.576;2022-11-18T11:58:20;3.80;;;3.37;;
11121;SDS011;5615;49.304;10.576;2022-11-18T12:00:59;3.20;;;2.70;;
11121;SDS011;5615;49.304;10.576;2022-11-18T12:03:37;4.00;;;2.60;;
11121;SDS011;5615;49.304;10.576;2022-11-18T12:06:10;2.57;;;2.37;;
11121;SDS011;5615;49.304;10.576;2022-11-18T12:08:38;2.60;;;2.20;;
11121;SDS011;5615;49.304;10.576;2022-11-18T12:11:16;2.63;;;2.37;;
11121;SDS011;5615;49.304;10.576;2022-11-18T12:13:52;2.33;;;2.07;;
11121;SDS011;5615;49.304;10.576;2022-11-18T12:16:28;1.77;;;1.67;;
11121;SDS011;5615;49.304;10.576;2022-11-18T12:19:01;2.57;;;1.87;;
11121;SDS011;5615;49.304;10.576;2022-11-18T12:24:25;1.90;;;1.70;;
11121;SDS011;5615;49.304;10.576;2022-11-18T12:26:56;2.07;;;1.87;;
11121;SDS011;5615;49.304;10.576;2022-11-18T12:29:24;2.27;;;2.07;;
11121;SDS011;5615;49.304;10.576;2022-11-18T12:31:57;2.20;;;2.00;;
11121;SDS011;5615;49.304;10.576;2022-11-18T12:34:30;2.57;;;2.23;;
11121;SDS011;5615;49.304;10.576;2022-11-18T12:40:04;2.47;;;2.20;;
11121;SDS011;5615;49.304;10.576;2022-11-18T12:42:40;2.47;;;2.23;;
11121;SDS011;5615;49.304;10.576;2022-11-18T12:54:14;7.13;;;5.27;;
11121;SDS011;5615;49.304;10.576;2022-11-18T12:56:49;23.03;;;13.37;;
11121;SDS011;5615;49.304;10.576;2022-11-18T12:59:24;5.20;;;4.70;;
11121;SDS011;5615;49.304;10.576;2022-11-18T13:02:00;12.83;;;9.53;;
11121;SDS011;5615;49.304;10.576;2022-11-18T13:04:30;25.23;;;20.37;;
11121;SDS011;5615;49.304;10.576;2022-11-18T13:06:56;9.17;;;6.90;;
11121;SDS011;5615;49.304;10.576;2022-11-18T13:09:24;5.50;;;4.90;;
11121;SDS011;5615;49.304;10.576;2022-11-18T13:11:54;7.47;;;5.00;;
11121;SDS011;5615;49.304;10.576;2022-11-18T13:14:26;6.40;;;5.00;;
11121;SDS011;5615;49.304;10.576;2022-11-18T13:20:23;12.20;;;9.17;;
11121;SDS011;5615;49.304;10.576;2022-11-18T13:22:55;7.87;;;5.57;;
11121;SDS011;5615;49.304;10.576;2022-11-18T13:25:41;4.90;;;4.50;;
11121;SDS011;5615;49.304;10.576;2022-11-18T13:28:12;4.73;;;4.33;;
11121;SDS011;5615;49.304;10.576;2022-11-18T13:30:47;3.70;;;3.40;;
11121;SDS011;5615;49.304;10.576;2022-11-18T13:33:18;6.37;;;5.73;;
11121;SDS011;5615;49.304;10.576;2022-11-18T13:35:46;12.53;;;8.70;;
11121;SDS011;5615;49.304;10.576;2022-11-18T13:38:20;4.87;;;4.30;;
11121;SDS011;5615;49.304;10.576;2022-11-18T13:40:49;4.30;;;4.00;;
11121;SDS011;5615;49.304;10.576;2022-11-18T13:43:37;4.40;;;4.00;;
11121;SDS011;5615;49.304;10.576;2022-11-18T13:46:05;20.63;;;12.07;;
11121;SDS011;5615;49.304;10.576;2022-11-18T13:48:36;16.70;;;11.17;;
11121;SDS011;5615;49.304;10.576;2022-11-18T13:51:08;11.93;;;9.03;;
11121;SDS011;5615;49.304;10.576;2022-11-18T13:53:35;7.20;;;6.50;;
11121;SDS011;5615;49.304;10.576;2022-11-18T13:56:03;11.10;;;8.37;;
11121;SDS011;5615;49.304;10.576;2022-11-18T13:58:32;5.37;;;4.70;;
11121;SDS011;5615;49.304;10.576;2022-11-18T14:01:04;5.63;;;5.13;;
11121;SDS011;5615;49.304;10.576;2022-11-18T14:03:39;4.90;;;4.40;;
11121;SDS011;5615;49.304;10.576;2022-11-18T14:06:24;4.67;;;4.27;;
11121;SDS011;5615;49.304;10.576;2022-11-18T14:09:02;6.47;;;5.47;;
11121;SDS011;5615;49.304;10.576;2022-11-18T14:11:34;6.17;;;5.27;;
11121;SDS011;5615;49.304;10.576;2022-11-18T14:14:02;4.67;;;4.23;;
11121;SDS011;5615;49.304;10.576;2022-11-18T14:16:29;5.00;;;4.60;;
11121;SDS011;5615;49.304;10.576;2022-11-18T14:18:58;5.03;;;4.57;;
11121;SDS011;5615;49.304;10.576;2022-11-18T14:21:27;5.60;;;5.10;;
11121;SDS011;5615;49.304;10.576;2022-11-18T14:23:54;6.30;;;5.70;;
11121;SDS011;5615;49.304;10.576;2022-11-18T14:26:28;5.77;;;5.20;;
11121;SDS011;5615;49.304;10.576;2022-11-18T14:28:56;6.03;;;5.43;;
11121;SDS011;5615;49.304;10.576;2022-11-18T14:31:25;5.80;;;5.23;;
11121;SDS011;5615;49.304;10.576;2022-11-18T14:34:03;7.30;;;5.40;;
11121;SDS011;5615;49.304;10.576;2022-11-18T14:36:32;7.53;;;6.30;;
11121;SDS011;5615;49.304;10.576;2022-11-18T14:38:59;7.00;;;6.30;;
11121;SDS011;5615;49.304;10.576;2022-11-18T14:41:25;10.93;;;8.97;;
11121;SDS011;5615;49.304;10.576;2022-11-18T14:44:06;27.87;;;13.57;;
11121;SDS011;5615;49.304;10.576;2022-11-18T14:46:33;12.70;;;8.70;;
11121;SDS011;5615;49.304;10.576;2022-11-18T14:49:02;36.73;;;16.33;;
11121;SDS011;5615;49.304;10.576;2022-11-18T14:51:32;34.20;;;16.30;;
11121;SDS011;5615;49.304;10.576;2022-11-18T14:53:59;28.43;;;13.70;;
11121;SDS011;5615;49.304;10.576;2022-11-18T14:56:26;11.23;;;9.37;;
11121;SDS011;5615;49.304;10.576;2022-11-18T14:58:54;8.37;;;7.57;;
11121;SDS011;5615;49.304;10.576;2022-11-18T15:01:22;7.07;;;6.37;;
11121;SDS011;5615;49.304;10.576;2022-11-18T15:03:51;9.70;;;7.73;;
11121;SDS011;5615;49.304;10.576;2022-11-18T15:06:18;7.30;;;6.43;;
11121;SDS011;5615;49.304;10.576;2022-11-18T15:08:49;7.77;;;6.67;;
11121;SDS011;5615;49.304;10.576;2022-11-18T15:11:17;9.10;;;8.20;;
11121;SDS011;5615;49.304;10.576;2022-11-18T15:13:44;9.30;;;8.33;;
11121;SDS011;5615;49.304;10.576;2022-11-18T15:16:12;12.00;;;10.20;;
11121;SDS011;5615;49.304;10.576;2022-11-18T15:18:40;10.47;;;9.00;;
11121;SDS011;5615;49.304;10.576;2022-11-18T15:21:07;9.87;;;8.87;;
11121;SDS011;5615;49.304;10.576;2022-11-18T15:23:34;9.70;;;8.23;;
11121;SDS011;5615;49.304;10.576;2022-11-18T15:26:18;12.80;;;11.50;;